Time;durP1;ratioP1;P1;durP2;ratioP2;P2;SDS_P1;SDS_P2;PMS_P1;PMS_P2;Temp;Humidity;BMP_temperature;BMP_pressure;BME280_temperature;BME280_humidity;BME280_pressure;Samples;Min_cycle;Max_cycle;Signal;HPM_P1;HPM_P2
2021/09/09 00:01:19;;;;;;;7.00;4.93;;;19.70;73.20;;;;;;4986266;28;20031;-91
2021/09/09 00:03:45;;;;;;;6.47;5.00;;;19.60;73.20;;;;;;4998416;28;20037;-92
2021/09/09 00:06:14;;;;;;;7.13;5.22;;;19.70;73.20;;;;;;4991951;28;20057;-89
2021/09/09 00:08:45;;;;;;;7.65;4.93;;;19.60;73.20;;;;;;4983240;28;20041;-88
2021/09/09 00:11:11;;;;;;;9.85;4.82;;;19.60;73.20;;;;;;4995547;28;20045;-90
2021/09/09 00:13:40;;;;;;;6.85;5.00;;;19.60;73.20;;;;;;4982253;28;20126;-90
2021/09/09 00:16:07;;;;;;;6.50;4.90;;;19.60;73.20;;;;;;4998907;28;20034;-89
2021/09/09 00:18:33;;;;;;;6.47;4.80;;;19.60;73.30;;;;;;4998343;28;20034;-92
2021/09/09 00:21:00;;;;;;;7.80;5.13;;;19.60;73.30;;;;;;4993631;28;20049;-91
2021/09/09 00:23:26;;;;;;;6.90;4.85;;;19.60;73.30;;;;;;5012086;28;20035;-93
2021/09/09 00:25:52;;;;;;;6.25;5.03;;;19.60;73.30;;;;;;5001389;28;20120;-92
2021/09/09 00:28:20;;;;;;;6.32;4.40;;;19.70;74.00;;;;;;4985086;28;20041;-92
2021/09/09 00:30:46;;;;;;;8.30;4.85;;;19.60;73.40;;;;;;4999386;28;20046;-92
2021/09/09 00:33:12;;;;;;;5.32;4.72;;;19.60;73.40;;;;;;4997084;28;20082;-90
2021/09/09 00:35:41;;;;;;;8.65;4.97;;;19.60;73.30;;;;;;4998632;28;20126;-91
2021/09/09 00:38:10;;;;;;;7.15;4.88;;;19.60;73.40;;;;;;5002398;28;20054;-92
2021/09/09 00:40:38;;;;;;;5.97;4.57;;;19.60;73.40;;;;;;5005046;28;20030;-91
2021/09/09 00:43:20;;;;;;;6.65;4.88;;;19.60;73.40;;;;;;5006886;28;20060;-91
2021/09/09 00:45:56;;;;;;;9.18;5.22;;;19.60;73.40;;;;;;4988573;28;20030;-91
2021/09/09 00:48:41;;;;;;;;;;;;;;;;;;;;;
2021/09/09 00:51:13;;;;;;;6.28;4.43;;;19.60;73.50;;;;;;5002454;28;20061;-93
2021/09/09 00:53:42;;;;;;;9.57;5.10;;;19.50;73.40;;;;;;5004943;28;20018;-93
2021/09/09 00:56:08;;;;;;;6.13;4.50;;;19.50;73.40;;;;;;4997869;28;20042;-91
2021/09/09 00:58:53;;;;;;;6.38;4.90;;;19.50;73.50;;;;;;4999811;28;20034;-92
2021/09/09 01:01:24;;;;;;;5.50;4.85;;;19.50;73.60;;;;;;4996898;28;20115;-92
2021/09/09 01:04:00;;;;;;;6.03;4.88;;;19.50;73.50;;;;;;5000906;28;20129;-92
2021/09/09 01:06:26;;;;;;;6.82;5.05;;;19.50;73.50;;;;;;5003980;28;20031;-93
2021/09/09 01:08:55;;;;;;;5.88;4.57;;;19.50;73.60;;;;;;4996223;28;20036;-92
2021/09/09 01:11:23;;;;;;;7.90;5.50;;;19.50;73.60;;;;;;5002495;28;20034;-90
2021/09/09 01:13:50;;;;;;;5.18;4.38;;;19.40;73.60;;;;;;4996907;28;20042;-90
2021/09/09 01:16:21;;;;;;;6.93;5.15;;;19.40;74.20;;;;;;5002396;28;20034;-90
2021/09/09 01:18:50;;;;;;;6.68;5.30;;;19.40;73.60;;;;;;4985498;28;20042;-90
2021/09/09 01:21:19;;;;;;;6.93;4.95;;;19.40;73.70;;;;;;5002556;28;20133;-92
2021/09/09 01:23:51;;;;;;;6.85;5.05;;;19.40;73.70;;;;;;4981702;28;20017;-92
2021/09/09 01:26:17;;;;;;;9.13;5.35;;;19.40;73.70;;;;;;4983296;28;20027;-92
2021/09/09 01:28:49;;;;;;;6.70;5.18;;;19.40;73.70;;;;;;4997737;28;20065;-92
2021/09/09 01:31:16;;;;;;;9.48;5.47;;;19.40;73.70;;;;;;4999089;28;20101;-92
2021/09/09 01:33:56;;;;;;;9.27;5.15;;;19.30;73.70;;;;;;4984762;28;20065;-91
2021/09/09 01:36:26;;;;;;;5.53;4.70;;;19.40;73.80;;;;;;4987797;28;20066;-93
2021/09/09 01:38:54;;;;;;;6.38;5.07;;;19.30;73.70;;;;;;4997419;28;20039;-92
2021/09/09 01:41:22;;;;;;;6.57;4.68;;;19.30;73.80;;;;;;4988713;28;20355;-93
2021/09/09 01:43:53;;;;;;;5.82;4.30;;;19.30;73.80;;;;;;4986852;28;20034;-93
2021/09/09 01:46:30;;;;;;;7.53;4.30;;;19.30;73.90;;;;;;4985253;28;20558;-93
2021/09/09 01:49:15;;;;;;;6.78;5.15;;;19.30;73.90;;;;;;4989868;28;20034;-90
2021/09/09 01:51:51;;;;;;;7.18;5.00;;;19.30;73.90;;;;;;5011494;28;20030;-90
2021/09/09 01:54:17;;;;;;;6.43;5.05;;;19.20;73.90;;;;;;4991911;28;20062;-91
2021/09/09 01:56:43;;;;;;;7.25;4.82;;;19.30;74.00;;;;;;4978985;28;20054;-90
2021/09/09 01:59:18;;;;;;;;;;;19.20;73.90;;;;;;4996326;28;20011;-93
2021/09/09 02:01:47;;;;;;;6.78;4.95;;;19.20;73.90;;;;;;4987592;28;20385;-92
2021/09/09 02:04:15;;;;;;;5.60;4.97;;;19.20;73.90;;;;;;4994792;28;20029;-94
2021/09/09 02:06:41;;;;;;;6.72;5.10;;;19.20;74.00;;;;;;4986964;28;20038;-91
2021/09/09 02:09:19;;;;;;;9.10;5.18;;;19.20;74.10;;;;;;4987411;28;20022;-92
2021/09/09 02:11:45;;;;;;;8.32;5.35;;;19.20;74.10;;;;;;5000601;28;20138;-93
2021/09/09 02:14:14;;;;;;;8.68;4.97;;;19.20;74.20;;;;;;4999522;28;20023;-92
2021/09/09 02:16:52;;;;;;;7.38;4.90;;;19.20;74.20;;;;;;4995689;28;20045;-93
2021/09/09 02:19:18;;;;;;;7.05;4.90;;;19.20;74.20;;;;;;4986363;28;20070;-93
2021/09/09 02:21:54;;;;;;;6.38;4.80;;;19.20;74.20;;;;;;4980436;28;20037;-94
2021/09/09 02:24:20;;;;;;;6.57;4.72;;;19.20;74.30;;;;;;5003047;28;20041;-94
2021/09/09 02:26:49;;;;;;;6.57;4.70;;;19.20;74.30;;;;;;4979860;28;20094;-93
2021/09/09 02:29:27;;;;;;;5.85;4.85;;;19.10;74.30;;;;;;4997270;28;20117;-93
2021/09/09 02:31:56;;;;;;;6.00;5.40;;;19.10;74.30;;;;;;5002647;28;20505;-92
2021/09/09 02:34:32;;;;;;;7.15;5.10;;;19.20;74.40;;;;;;4995238;28;20038;-93
2021/09/09 02:36:58;;;;;;;7.38;4.90;;;19.10;74.40;;;;;;5002375;28;20574;-94
2021/09/09 02:39:42;;;;;;;5.90;4.88;;;19.10;74.40;;;;;;4995367;28;20098;-92
2021/09/09 02:42:12;;;;;;;5.97;4.40;;;19.10;74.40;;;;;;4991194;28;20034;-91
2021/09/09 02:44:50;;;;;;;7.60;4.90;;;19.10;74.40;;;;;;4985151;28;20508;-94
2021/09/09 02:47:15;;;;;;;7.00;4.70;;;19.10;74.40;;;;;;4985583;28;20105;-94
2021/09/09 02:49:41;;;;;;;5.03;4.45;;;19.10;74.40;;;;;;4989668;28;20035;-93
2021/09/09 02:52:07;;;;;;;5.80;4.78;;;19.10;74.50;;;;;;5002514;28;20030;-91
2021/09/09 02:54:33;;;;;;;8.15;4.90;;;19.10;74.50;;;;;;5003000;28;20034;-94
2021/09/09 02:57:08;;;;;;;6.20;4.82;;;19.10;74.50;;;;;;4986882;28;20888;-92
2021/09/09 02:59:37;;;;;;;10.57;5.28;;;19.10;74.50;;;;;;4979613;28;20035;-90
2021/09/09 03:02:03;;;;;;;9.73;4.75;;;19.10;74.60;;;;;;5002816;28;20113;-91
2021/09/09 03:04:31;;;;;;;6.72;4.95;;;19.10;74.50;;;;;;5001453;28;20046;-94
2021/09/09 03:06:57;;;;;;;6.60;5.13;;;19.10;74.60;;;;;;4980564;28;20059;-91
2021/09/09 03:09:29;;;;;;;5.30;4.22;;;19.10;74.60;;;;;;4997964;28;20034;-92
2021/09/09 03:11:55;;;;;;;5.78;4.80;;;19.00;74.50;;;;;;4995264;28;20018;-93
2021/09/09 03:14:21;;;;;;;6.05;4.85;;;19.00;74.60;;;;;;4980488;28;20042;-94
2021/09/09 03:16:49;;;;;;;6.38;4.70;;;19.10;74.60;;;;;;4986129;28;20037;-92
2021/09/09 03:19:15;;;;;;;5.03;4.20;;;19.10;74.60;;;;;;4996289;28;20045;-93
2021/09/09 03:21:47;;;;;;;6.38;4.80;;;19.00;74.50;;;;;;4996863;28;20097;-93
2021/09/09 03:24:13;;;;;;;9.40;4.90;;;19.00;74.60;;;;;;5002122;28;20045;-93
2021/09/09 03:26:51;;;;;;;5.70;4.63;;;19.00;74.60;;;;;;4997607;28;20027;-93
2021/09/09 03:29:17;;;;;;;5.80;5.00;;;19.00;74.60;;;;;;4998900;28;20185;-93
2021/09/09 03:31:43;;;;;;;7.22;4.93;;;19.10;74.70;;;;;;4980345;28;20045;-91
2021/09/09 03:34:09;;;;;;;7.88;4.95;;;19.10;74.70;;;;;;4998071;28;20034;-91
2021/09/09 03:36:40;;;;;;;6.03;4.55;;;19.10;74.70;;;;;;5000069;28;20037;-93
2021/09/09 03:39:09;;;;;;;6.75;4.93;;;19.00;74.70;;;;;;5000186;28;20031;-93
2021/09/09 03:41:38;;;;;;;7.75;4.72;;;19.00;74.70;;;;;;4979428;28;20129;-90
2021/09/09 03:44:13;;;;;;;7.80;4.65;;;19.00;74.70;;;;;;4985199;28;20014;-93
2021/09/09 03:46:39;;;;;;;6.25;4.75;;;19.00;74.70;;;;;;4996417;28;20035;-91
2021/09/09 03:49:08;;;;;;;7.30;5.10;;;19.00;74.70;;;;;;4994834;28;20066;-94
2021/09/09 03:51:34;;;;;;;8.25;4.53;;;19.00;74.80;;;;;;4981543;28;20045;-93
2021/09/09 03:54:03;;;;;;;6.97;5.03;;;19.00;74.80;;;;;;4977949;28;20038;-91
2021/09/09 03:56:32;;;;;;;6.53;4.40;;;19.00;74.80;;;;;;4984919;28;20070;-93
2021/09/09 03:59:01;;;;;;;6.93;4.47;;;19.10;74.90;;;;;;4985452;28;20034;-93
2021/09/09 04:01:27;;;;;;;7.75;4.75;;;19.00;74.90;;;;;;4995626;28;20046;-95
2021/09/09 04:03:53;;;;;;;5.07;4.40;;;19.00;74.90;;;;;;4996326;28;20567;-93
2021/09/09 04:06:22;;;;;;;6.90;4.70;;;19.00;74.90;;;;;;4978960;28;20038;-93
2021/09/09 04:08:53;;;;;;;6.38;4.45;;;19.10;74.90;;;;;;4988473;28;20030;-93
2021/09/09 04:11:19;;;;;;;7.85;5.03;;;19.10;75.00;;;;;;4987336;28;20010;-92
2021/09/09 04:13:45;;;;;;;8.25;4.30;;;19.10;75.00;;;;;;4995774;28;20122;-93
2021/09/09 04:16:13;;;;;;;5.18;4.35;;;19.00;75.00;;;;;;4995288;28;20082;-92
2021/09/09 04:18:39;;;;;;;9.45;4.43;;;19.00;75.00;;;;;;4987299;28;20065;-92
2021/09/09 04:21:11;;;;;;;5.38;3.83;;;19.00;75.00;;;;;;4996252;28;20049;-92
2021/09/09 04:23:37;;;;;;;6.20;4.95;;;19.00;75.00;;;;;;4995762;28;20042;-91
2021/09/09 04:26:03;;;;;;;6.20;4.68;;;19.10;75.10;;;;;;4999761;28;20026;-92
2021/09/09 04:28:28;;;;;;;5.65;4.15;;;19.10;75.10;;;;;;5001523;28;20049;-91
2021/09/09 04:30:56;;;;;;;6.35;4.18;;;19.00;75.00;;;;;;4996714;28;20401;-90
2021/09/09 04:33:22;;;;;;;5.93;4.30;;;19.10;75.20;;;;;;5000292;28;20465;-92
2021/09/09 04:35:56;;;;;;;5.97;4.18;;;19.00;75.10;;;;;;4987927;28;20050;-90
2021/09/09 04:38:31;;;;;;;8.30;4.82;;;19.00;75.10;;;;;;4986370;28;20038;-90
2021/09/09 04:40:57;;;;;;;6.70;4.45;;;19.10;75.20;;;;;;4998082;28;20042;-90
2021/09/09 04:43:25;;;;;;;5.70;4.63;;;19.10;75.20;;;;;;5000900;28;20038;-90
2021/09/09 04:45:51;;;;;;;6.70;4.68;;;19.10;75.20;;;;;;4998577;28;20030;-91
2021/09/09 04:48:17;;;;;;;6.88;4.47;;;19.10;75.20;;;;;;5002441;28;20045;-95
2021/09/09 04:50:45;;;;;;;6.72;4.53;;;19.10;75.30;;;;;;4985570;28;20022;-96
2021/09/09 04:53:14;;;;;;;7.28;5.15;;;19.10;75.30;;;;;;5001512;28;20033;-94
2021/09/09 04:55:40;;;;;;;6.90;5.00;;;19.00;75.30;;;;;;4984445;28;20030;-95
2021/09/09 04:58:06;;;;;;;7.50;4.88;;;19.10;75.40;;;;;;4997512;28;20014;-94
2021/09/09 05:00:31;;;;;;;6.57;4.68;;;19.00;75.40;;;;;;5000760;28;20037;-94
2021/09/09 05:02:57;;;;;;;5.15;4.45;;;19.10;75.50;;;;;;4986213;28;20030;-92
2021/09/09 05:05:26;;;;;;;7.32;4.63;;;19.00;75.40;;;;;;4999451;28;20102;-92
2021/09/09 05:07:52;;;;;;;5.60;4.72;;;19.00;76.10;;;;;;4998510;28;20062;-90
2021/09/09 05:10:18;;;;;;;7.25;4.60;;;19.10;75.60;;;;;;4986468;28;20058;-90
2021/09/09 05:12:44;;;;;;;9.30;5.90;;;19.10;75.60;;;;;;4997983;28;20100;-91
2021/09/09 05:15:15;;;;;;;9.43;6.97;;;19.10;75.60;;;;;;4997295;28;20082;-90
2021/09/09 05:17:47;;;;;;;9.60;6.68;;;19.10;75.60;;;;;;4997380;28;20043;-90
2021/09/09 05:20:23;;;;;;;;;;;;;;;;;;;;;
2021/09/09 05:22:58;;;;;;;7.82;6.20;;;19.10;75.60;;;;;;5004369;28;20489;-90
2021/09/09 05:25:27;;;;;;;7.47;5.53;;;19.10;75.60;;;;;;4985440;28;20041;-90
2021/09/09 05:27:53;;;;;;;7.68;5.63;;;19.10;76.20;;;;;;4996936;28;20058;-90
2021/09/09 05:30:21;;;;;;;7.72;5.93;;;19.10;75.70;;;;;;4997271;28;20053;-88
2021/09/09 05:32:47;;;;;;;7.35;5.55;;;19.20;75.80;;;;;;4986736;28;20038;-88
2021/09/09 05:35:13;;;;;;;8.80;5.65;;;19.10;75.80;;;;;;4979887;28;20042;-88
2021/09/09 05:37:40;;;;;;;6.95;5.35;;;19.20;75.80;;;;;;4981488;28;20382;-88
2021/09/09 05:40:08;;;;;;;8.02;4.97;;;19.20;75.80;;;;;;4984395;28;20035;-89
2021/09/09 05:42:34;;;;;;;8.20;5.13;;;19.20;75.80;;;;;;4996473;28;20464;-89
2021/09/09 05:45:00;;;;;;;6.18;4.82;;;19.20;75.80;;;;;;4995474;28;20027;-87
2021/09/09 05:47:26;;;;;;;6.90;5.03;;;19.10;75.90;;;;;;4982464;28;20037;-88
2021/09/09 05:49:51;;;;;;;6.75;4.80;;;19.20;76.00;;;;;;4992344;28;20037;-88
2021/09/09 05:52:17;;;;;;;8.75;4.53;;;19.20;76.00;;;;;;4992292;28;20065;-88
2021/09/09 05:54:43;;;;;;;6.72;5.15;;;19.20;76.00;;;;;;4985772;28;21194;-87
2021/09/09 05:57:10;;;;;;;6.72;5.18;;;19.20;76.00;;;;;;5001237;28;20013;-95
2021/09/09 05:59:36;;;;;;;7.07;4.88;;;19.20;76.00;;;;;;4977547;28;20057;-88
2021/09/09 06:02:02;;;;;;;6.65;4.75;;;19.20;76.10;;;;;;4996139;28;20058;-89
2021/09/09 06:04:33;;;;;;;7.15;4.53;;;19.30;76.20;;;;;;4995623;28;20412;-91
2021/09/09 06:07:03;;;;;;;5.38;4.30;;;19.20;76.10;;;;;;5013014;28;20042;-92
2021/09/09 06:09:36;;;;;;;8.27;4.60;;;19.30;76.20;;;;;;4985481;28;20058;-87
2021/09/09 06:12:02;;;;;;;6.28;5.03;;;19.30;76.20;;;;;;4994412;28;20057;-86
2021/09/09 06:14:29;;;;;;;6.25;4.75;;;19.30;76.20;;;;;;4997782;28;20493;-88
2021/09/09 06:16:55;;;;;;;8.02;5.22;;;19.30;76.20;;;;;;4981961;28;20015;-87
2021/09/09 06:19:21;;;;;;;7.47;4.63;;;19.30;76.20;;;;;;4994829;28;20030;-88
2021/09/09 06:21:47;;;;;;;6.60;4.53;;;19.30;76.20;;;;;;4991665;28;20046;-86
2021/09/09 06:24:13;;;;;;;5.72;4.50;;;19.30;76.20;;;;;;4996454;28;20053;-87
2021/09/09 06:26:39;;;;;;;7.05;4.90;;;19.30;76.20;;;;;;4976045;28;20030;-88
2021/09/09 06:29:05;;;;;;;8.68;4.47;;;19.30;76.20;;;;;;4994365;28;20035;-88
2021/09/09 06:31:31;;;;;;;6.55;4.47;;;19.30;76.30;;;;;;4994593;28;20077;-88
2021/09/09 06:33:56;;;;;;;6.95;4.30;;;19.40;76.40;;;;;;4998320;28;20062;-89
2021/09/09 06:36:22;;;;;;;7.15;4.97;;;19.40;76.30;;;;;;5000251;28;20561;-89
2021/09/09 06:38:57;;;;;;;10.35;6.38;;;19.40;76.30;;;;;;5012577;28;20045;-88
2021/09/09 06:41:23;;;;;;;12.35;5.85;;;19.40;76.30;;;;;;5008724;28;20143;-89
2021/09/09 06:43:49;;;;;;;6.93;5.15;;;19.50;76.40;;;;;;4998567;28;20038;-88
2021/09/09 06:46:18;;;;;;;9.80;5.78;;;19.50;76.40;;;;;;4980788;28;20041;-89
2021/09/09 06:48:44;;;;;;;7.20;5.22;;;19.50;76.40;;;;;;4995741;28;20058;-87
2021/09/09 06:51:10;;;;;;;7.55;4.95;;;19.50;76.40;;;;;;4997772;28;20026;-90
2021/09/09 06:53:36;;;;;;;7.55;4.80;;;19.60;76.40;;;;;;5000924;28;20034;-91
2021/09/09 06:56:02;;;;;;;7.05;4.57;;;19.60;76.40;;;;;;4997010;28;20045;-91
2021/09/09 06:58:28;;;;;;;6.68;5.13;;;19.60;76.40;;;;;;4999970;28;20038;-91
2021/09/09 07:00:54;;;;;;;7.50;4.88;;;19.60;76.50;;;;;;5000777;28;20034;-91
2021/09/09 07:03:37;;;;;;;5.53;4.30;;;19.60;76.40;;;;;;4988648;28;20101;-90
2021/09/09 07:06:14;;;;;;;6.85;4.68;;;19.70;76.60;;;;;;4978303;28;20050;-90
2021/09/09 07:08:43;;;;;;;7.07;4.30;;;19.70;76.60;;;;;;4996097;28;20058;-88
2021/09/09 07:11:09;;;;;;;7.10;4.90;;;19.70;76.50;;;;;;4994625;28;20455;-95
2021/09/09 07:13:37;;;;;;;8.60;5.03;;;19.70;76.40;;;;;;4995209;28;20034;-85
2021/09/09 07:16:03;;;;;;;10.20;5.22;;;19.80;76.70;;;;;;4993586;28;20450;-84
2021/09/09 07:18:30;;;;;;;5.85;4.53;;;19.80;76.90;;;;;;4996244;28;20053;-84
2021/09/09 07:20:56;;;;;;;7.65;4.53;;;19.80;77.00;;;;;;4995293;28;20031;-84
2021/09/09 07:23:22;;;;;;;5.40;4.35;;;19.80;77.10;;;;;;4995728;28;20082;-82
2021/09/09 07:25:48;;;;;;;6.55;4.45;;;19.90;77.30;;;;;;4996164;28;20034;-84
2021/09/09 07:28:15;;;;;;;6.05;4.50;;;19.90;77.20;;;;;;4993429;28;20027;-85
2021/09/09 07:30:41;;;;;;;5.10;4.10;;;19.90;77.40;;;;;;4996317;28;20054;-84
2021/09/09 07:33:07;;;;;;;8.07;4.85;;;19.90;77.40;;;;;;4994578;28;20038;-84
2021/09/09 07:35:33;;;;;;;7.20;4.45;;;19.90;77.60;;;;;;4995192;28;20098;-85
2021/09/09 07:37:59;;;;;;;6.57;4.38;;;19.90;77.70;;;;;;4997080;28;20035;-85
2021/09/09 07:40:26;;;;;;;6.15;4.05;;;19.90;77.60;;;;;;4978237;28;20034;-85
2021/09/09 07:42:52;;;;;;;7.72;4.70;;;19.90;77.80;;;;;;4992587;28;20053;-83
2021/09/09 07:45:18;;;;;;;6.57;4.47;;;19.90;77.80;;;;;;4994546;28;20026;-85
2021/09/09 07:47:44;;;;;;;10.10;4.20;;;20.00;77.90;;;;;;5001642;28;20038;-82
2021/09/09 07:50:11;;;;;;;6.20;4.57;;;20.00;78.00;;;;;;4994839;28;20043;-82
2021/09/09 07:52:38;;;;;;;12.90;7.50;;;20.10;78.90;;;;;;4997236;28;20464;-83
2021/09/09 07:55:04;;;;;;;6.18;4.10;;;20.20;79.10;;;;;;5000452;28;20046;-83
2021/09/09 07:57:30;;;;;;;12.25;4.60;;;20.30;79.00;;;;;;4999500;28;20045;-83
2021/09/09 07:59:56;;;;;;;9.48;5.50;;;20.30;79.10;;;;;;4995561;28;20034;-84
2021/09/09 08:02:22;;;;;;;9.18;4.55;;;20.40;79.10;;;;;;4993369;28;20046;-82
2021/09/09 08:04:48;;;;;;;11.13;4.63;;;20.40;79.00;;;;;;4993610;28;20075;-81
2021/09/09 08:07:13;;;;;;;7.97;4.68;;;20.50;78.90;;;;;;4998608;28;20084;-81
2021/09/09 08:09:39;;;;;;;8.82;4.65;;;20.60;78.90;;;;;;4999915;28;20049;-84
2021/09/09 08:12:06;;;;;;;7.18;4.03;;;20.70;78.80;;;;;;4994380;28;20054;-82
2021/09/09 08:14:32;;;;;;;8.52;4.10;;;20.70;78.60;;;;;;4992878;28;20065;-81
2021/09/09 08:16:58;;;;;;;7.38;4.53;;;20.70;78.50;;;;;;4992611;28;20123;-84
2021/09/09 08:19:24;;;;;;;5.18;3.90;;;20.80;78.30;;;;;;4990372;28;20042;-85
2021/09/09 08:21:50;;;;;;;8.00;4.20;;;20.80;78.20;;;;;;4980922;28;20053;-86
2021/09/09 08:24:16;;;;;;;7.22;4.15;;;20.80;78.10;;;;;;4998502;28;20034;-85
2021/09/09 08:26:42;;;;;;;6.55;4.05;;;20.90;77.80;;;;;;5000088;28;20548;-88
2021/09/09 08:29:08;;;;;;;7.93;3.88;;;20.80;77.40;;;;;;4980456;28;20038;-89
2021/09/09 08:31:34;;;;;;;8.38;3.90;;;20.90;77.10;;;;;;4998519;28;20062;-89
2021/09/09 08:34:00;;;;;;;5.82;3.88;;;20.80;76.80;;;;;;4999224;28;20042;-90
2021/09/09 08:36:26;;;;;;;5.75;3.63;;;20.80;76.70;;;;;;4982774;28;20041;-90
2021/09/09 08:38:52;;;;;;;3.90;3.50;;;20.80;76.70;;;;;;4994879;28;20035;-89
2021/09/09 08:41:19;;;;;;;6.60;4.10;;;20.80;76.60;;;;;;4988705;28;20049;-89
2021/09/09 08:43:46;;;;;;;4.78;3.30;;;20.80;76.50;;;;;;4993168;28;20536;-87
2021/09/09 08:46:15;;;;;;;7.32;4.28;;;20.80;76.40;;;;;;4988875;28;20541;-88
2021/09/09 08:48:44;;;;;;;5.45;3.63;;;20.70;76.30;;;;;;4976522;28;20041;-88
2021/09/09 08:51:15;;;;;;;6.10;3.65;;;20.80;76.30;;;;;;4988786;28;20057;-88
2021/09/09 08:53:41;;;;;;;7.00;3.70;;;20.80;76.30;;;;;;4986850;28;20038;-89
2021/09/09 08:56:07;;;;;;;7.75;4.03;;;20.70;76.20;;;;;;4974599;28;20121;-87
2021/09/09 08:58:36;;;;;;;8.40;3.35;;;20.70;76.30;;;;;;4999467;28;20425;-89
2021/09/09 09:01:18;;;;;;;5.38;3.35;;;20.70;76.20;;;;;;4972500;28;20089;-87
2021/09/09 09:03:52;;;;;;;3.85;3.00;;;20.70;76.20;;;;;;4988824;28;20129;-92
2021/09/09 09:06:27;;;;;;;4.15;2.92;;;20.70;76.10;;;;;;4976602;28;20044;-90
2021/09/09 09:08:56;;;;;;;5.28;3.10;;;20.70;76.20;;;;;;4994253;28;20027;-92
2021/09/09 09:11:28;;;;;;;4.65;3.35;;;20.70;76.20;;;;;;4980373;28;20042;-95
2021/09/09 09:17:03;;;;;;;7.28;2.90;;;20.70;76.20;;;;;;5318295;23;20033;-94
2021/09/09 09:19:32;;;;;;;4.57;2.45;;;20.70;76.10;;;;;;4978203;28;20138;-93
2021/09/09 09:22:05;;;;;;;4.10;2.83;;;20.70;76.00;;;;;;4993879;28;20092;-91
2021/09/09 09:24:34;;;;;;;8.55;2.75;;;20.70;75.90;;;;;;4996264;28;20041;-94
2021/09/09 09:27:15;;;;;;;5.75;3.17;;;20.60;75.80;;;;;;4985146;28;20031;-88
2021/09/09 09:29:57;;;;;;;4.60;2.60;;;20.60;75.80;;;;;;4994177;28;20418;-90
2021/09/09 09:32:23;;;;;;;4.32;2.40;;;20.60;75.70;;;;;;4993860;28;20049;-93
2021/09/09 09:34:49;;;;;;;5.22;2.67;;;20.60;75.70;;;;;;4997579;28;20077;-94
2021/09/09 09:37:22;;;;;;;2.63;2.30;;;20.60;75.60;;;;;;4983806;28;20035;-95
2021/09/09 09:39:49;;;;;;;2.70;2.50;;;20.60;75.70;;;;;;4993600;28;20205;-94
2021/09/09 09:42:18;;;;;;;4.57;2.40;;;20.60;75.80;;;;;;4981329;28;20054;-94
2021/09/09 09:44:47;;;;;;;4.80;2.70;;;20.60;75.80;;;;;;4983151;28;20031;-93
2021/09/09 09:47:16;;;;;;;2.42;2.20;;;20.60;75.90;;;;;;4996404;28;20123;-93
2021/09/09 09:49:44;;;;;;;3.55;2.50;;;20.60;76.00;;;;;;4979011;28;20121;-89
2021/09/09 09:52:26;;;;;;;5.55;2.30;;;20.60;75.90;;;;;;4997221;28;20101;-88
2021/09/09 09:54:54;;;;;;;5.15;2.35;;;20.60;76.10;;;;;;4997038;28;20045;-87
2021/09/09 09:57:21;;;;;;;4.22;2.72;;;20.60;76.00;;;;;;4997857;28;20034;-87
2021/09/09 09:59:47;;;;;;;4.03;2.95;;;20.60;76.10;;;;;;4996470;28;20034;-86
2021/09/09 10:02:14;;;;;;;4.30;2.80;;;20.60;76.10;;;;;;4979466;28;20030;-91
2021/09/09 10:04:43;;;;;;;5.75;2.53;;;20.60;76.10;;;;;;4981586;28;20034;-88
2021/09/09 10:07:10;;;;;;;3.92;2.50;;;20.70;76.10;;;;;;4994982;28;20057;-87
2021/09/09 10:09:38;;;;;;;4.45;2.85;;;20.70;76.00;;;;;;4981591;28;20031;-87
2021/09/09 10:12:05;;;;;;;3.58;2.85;;;20.70;76.00;;;;;;4994056;28;20084;-85
2021/09/09 10:14:31;;;;;;;4.82;2.90;;;20.70;76.00;;;;;;4993542;28;20050;-85
2021/09/09 10:17:00;;;;;;;6.57;2.65;;;20.60;75.90;;;;;;4992204;28;20048;-84
2021/09/09 10:19:31;;;;;;;5.57;3.22;;;20.70;76.10;;;;;;4996331;28;20042;-85
2021/09/09 10:22:26;;;;;;;5.65;2.60;;;20.70;75.90;;;;;;4988582;28;20061;-85
2021/09/09 10:25:07;;;;;;;5.15;2.60;;;20.70;76.10;;;;;;4977377;28;20046;-83
2021/09/09 10:27:42;;;;;;;5.20;2.72;;;20.70;76.20;;;;;;4992388;28;20037;-94
2021/09/09 10:30:18;;;;;;;4.63;3.03;;;20.70;76.60;;;;;;4993399;28;20757;-92
2021/09/09 10:32:50;;;;;;;4.68;3.03;;;20.70;76.90;;;;;;4993521;28;20125;-92
2021/09/09 10:35:26;;;;;;;3.25;2.95;;;20.70;77.20;;;;;;4994400;28;20101;-93
2021/09/09 10:37:53;;;;;;;;;;;20.70;77.10;;;;;;4978046;28;20054;-93
2021/09/09 10:40:28;;;;;;;5.40;3.03;;;20.70;77.20;;;;;;4971688;28;20004;-93
2021/09/09 10:42:55;;;;;;;;;;;20.80;77.30;;;;;;4974034;28;20037;-90
2021/09/09 10:45:37;;;;;;;4.47;2.67;;;20.80;77.30;;;;;;4988297;28;20016;-86
2021/09/09 10:48:05;;;;;;;5.60;2.85;;;20.80;77.40;;;;;;4988447;28;20038;-84
2021/09/09 10:50:32;;;;;;;4.05;2.92;;;20.80;77.10;;;;;;4992836;28;20038;-84
2021/09/09 10:53:14;;;;;;;4.50;3.20;;;20.70;76.90;;;;;;4990762;28;20030;-83
2021/09/09 10:55:43;;;;;;;5.82;2.80;;;20.70;76.90;;;;;;4987047;28;20554;-84
2021/09/09 10:58:15;;;;;;;4.40;3.03;;;20.80;76.70;;;;;;4993183;28;20030;-87
2021/09/09 11:01:05;;;;;;;3.70;2.88;;;20.80;76.70;;;;;;4994331;28;20117;-88
2021/09/09 11:03:44;;;;;;;6.63;3.05;;;20.80;76.90;;;;;;4975021;28;20042;-96
2021/09/09 11:06:13;;;;;;;3.20;2.90;;;20.80;76.70;;;;;;4991535;28;20460;-90
2021/09/09 11:08:40;;;;;;;9.60;3.20;;;20.80;76.60;;;;;;4991524;28;20049;-89
2021/09/09 11:11:08;;;;;;;5.25;3.20;;;20.90;76.50;;;;;;4991337;28;20096;-88
2021/09/09 11:13:39;;;;;;;5.25;3.00;;;20.90;76.70;;;;;;4990500;28;20038;-90
2021/09/09 11:16:29;;;;;;;4.50;3.00;;;20.90;76.70;;;;;;4975989;28;20037;-91
2021/09/09 11:18:59;;;;;;;7.00;2.90;;;20.90;76.70;;;;;;4997823;28;20058;-96
2021/09/09 11:21:31;;;;;;;6.28;2.75;;;20.90;76.60;;;;;;4984352;28;20045;-93
2021/09/09 11:23:59;;;;;;;3.60;2.80;;;20.90;76.60;;;;;;4989665;28;20181;-92
2021/09/09 11:26:33;;;;;;;3.72;2.72;;;20.90;76.60;;;;;;5003947;28;20054;-95
2021/09/09 11:29:00;;;;;;;5.50;2.85;;;20.90;76.40;;;;;;4986741;28;20054;-92
2021/09/09 11:31:28;;;;;;;3.83;2.80;;;20.90;76.30;;;;;;4991566;28;20022;-94
2021/09/09 11:33:58;;;;;;;4.63;2.40;;;20.90;76.30;;;;;;5126208;23;20121;-91
2021/09/09 11:36:26;;;;;;;5.38;2.90;;;20.90;76.20;;;;;;4998897;28;20065;-91
2021/09/09 11:38:54;;;;;;;3.25;2.67;;;21.00;76.20;;;;;;4973464;28;20042;-93
2021/09/09 11:41:22;;;;;;;3.70;2.67;;;20.90;76.20;;;;;;4960053;28;20043;-93
2021/09/09 11:44:06;;;;;;;2.90;2.30;;;20.90;76.20;;;;;;4979625;28;20030;-94
2021/09/09 11:46:40;;;;;;;6.55;2.67;;;20.90;76.30;;;;;;4993762;28;20031;-93
2021/09/09 11:49:11;;;;;;;7.28;2.92;;;21.00;76.70;;;;;;4974403;28;20038;-92
2021/09/09 11:51:39;;;;;;;4.93;2.88;;;21.00;76.80;;;;;;4982228;28;20067;-96
2021/09/09 11:54:07;;;;;;;6.40;2.70;;;21.00;76.70;;;;;;4993862;28;20046;-93
2021/09/09 11:56:37;;;;;;;3.80;2.50;;;21.00;76.60;;;;;;4976701;28;20039;-95
2021/09/09 11:59:08;;;;;;;5.38;2.90;;;21.00;76.50;;;;;;4978224;28;20039;-96
2021/09/09 12:01:37;;;;;;;4.40;2.55;;;21.00;76.50;;;;;;4967826;28;20075;-94
2021/09/09 12:04:04;;;;;;;5.10;3.03;;;21.00;76.40;;;;;;4974373;28;20034;-96
2021/09/09 12:06:31;;;;;;;12.52;4.50;;;21.00;76.30;;;;;;4973380;28;20608;-94
2021/09/09 12:08:58;;;;;;;6.05;3.58;;;20.90;76.40;;;;;;4970053;28;20057;-96
2021/09/09 12:11:24;;;;;;;4.70;2.80;;;21.00;76.50;;;;;;4977551;28;20030;-94
2021/09/09 12:13:50;;;;;;;8.95;3.25;;;21.00;76.30;;;;;;4975603;28;20037;-95
2021/09/09 12:16:22;;;;;;;5.75;2.88;;;21.00;76.30;;;;;;4991607;28;20037;-96
2021/09/09 12:19:11;;;;;;;4.88;2.92;;;21.00;76.40;;;;;;4966937;28;20031;-94
2021/09/09 12:21:54;;;;;;;5.78;3.17;;;21.00;76.40;;;;;;4959769;28;20034;-95
2021/09/09 12:24:28;;;;;;;6.53;3.22;;;21.00;76.40;;;;;;4971849;28;20486;-96
2021/09/09 12:27:04;;;;;;;5.80;2.93;;;21.00;76.50;;;;;;4978093;28;20128;-95
2021/09/09 12:29:39;;;;;;;6.22;2.85;;;21.00;76.40;;;;;;4969090;28;20035;-94
2021/09/09 12:32:29;;;;;;;8.20;3.10;;;21.00;76.50;;;;;;4989349;28;20194;-93
2021/09/09 12:35:22;;;;;;;7.55;3.58;;;21.10;76.60;;;;;;4998951;28;20054;-91
2021/09/09 12:38:07;;;;;;;5.30;2.85;;;21.00;76.50;;;;;;4977484;28;20037;-95
2021/09/09 12:40:49;;;;;;;4.65;2.95;;;21.00;76.60;;;;;;4978179;28;20027;-93
2021/09/09 12:43:30;;;;;;;4.72;3.00;;;21.00;76.60;;;;;;4996034;28;20077;-96
2021/09/09 12:45:57;;;;;;;3.97;2.95;;;21.00;76.70;;;;;;4982127;28;20042;-94
2021/09/09 12:48:24;;;;;;;4.95;3.00;;;21.00;76.60;;;;;;4980168;28;20121;-95
2021/09/09 12:50:52;;;;;;;5.70;2.92;;;21.00;76.70;;;;;;4980995;28;20030;-95
2021/09/09 12:53:20;;;;;;;5.40;3.05;;;21.00;76.60;;;;;;4995019;28;20045;-93
2021/09/09 12:55:46;;;;;;;4.43;3.08;;;21.10;77.40;;;;;;4979737;28;20040;-92
2021/09/09 12:58:15;;;;;;;5.88;3.40;;;21.10;76.70;;;;;;4989708;28;20023;-94
2021/09/09 13:00:43;;;;;;;5.78;3.22;;;21.10;76.80;;;;;;4999124;28;20038;-93
2021/09/09 13:03:09;;;;;;;7.32;3.10;;;21.10;76.60;;;;;;5011235;28;20055;-93
2021/09/09 13:05:38;;;;;;;4.10;3.08;;;21.00;76.70;;;;;;4989798;28;20043;-93